Time;durP1;ratioP1;P1;durP2;ratioP2;P2;SDS_P1;SDS_P2;PMS_P1;PMS_P2;Temp;Humidity;BMP_temperature;BMP_pressure;BME280_temperature;BME280_humidity;BME280_pressure;Samples;Min_cycle;Max_cycle;Signal;HPM_P1;HPM_P2
2023/05/01 00:00:09;;;;;;;0.68;0.68;;;-0.20;99.90;;;;;;5077085;28;20212;-72
2023/05/01 00:02:36;;;;;;;0.60;0.60;;;-0.20;99.90;;;;;;5052502;28;20220;-72
2023/05/01 00:05:03;;;;;;;0.93;0.93;;;-0.20;99.90;;;;;;5045760;28;20731;-71
2023/05/01 00:07:29;;;;;;;0.80;0.80;;;-0.20;99.90;;;;;;5051118;28;20221;-72
2023/05/01 00:09:58;;;;;;;0.70;0.70;;;-0.20;99.90;;;;;;5052717;28;20232;-72
2023/05/01 00:12:25;;;;;;;0.60;0.60;;;-0.10;99.90;;;;;;5059975;28;20211;-73
2023/05/01 00:14:50;;;;;;;0.70;0.70;;;-0.10;99.90;;;;;;5092848;28;20220;-72
2023/05/01 00:17:16;;;;;;;0.60;0.60;;;0.00;99.90;;;;;;5075040;28;20216;-72
2023/05/01 00:19:42;;;;;;;0.70;0.70;;;0.00;99.90;;;;;;5074953;28;20198;-72
2023/05/01 00:22:08;;;;;;;0.68;0.68;;;0.00;99.90;;;;;;5074562;28;20208;-72
2023/05/01 00:24:34;;;;;;;0.75;0.75;;;0.00;99.90;;;;;;5084562;28;20197;-72
2023/05/01 00:26:59;;;;;;;0.70;0.70;;;0.00;99.90;;;;;;5076636;28;20204;-72
2023/05/01 00:29:25;;;;;;;0.70;0.70;;;0.00;99.90;;;;;;5075960;28;20201;-72
2023/05/01 00:31:51;;;;;;;1.23;0.95;;;-0.10;99.90;;;;;;5057583;28;20734;-72
2023/05/01 00:34:16;;;;;;;0.95;0.95;;;-0.10;99.90;;;;;;5058196;28;20190;-72
2023/05/01 00:36:42;;;;;;;0.80;0.80;;;-0.10;99.90;;;;;;5054400;28;20220;-72
2023/05/01 00:39:08;;;;;;;0.80;0.80;;;-0.10;99.90;;;;;;5056116;28;20201;-72
2023/05/01 00:41:35;;;;;;;0.70;0.70;;;-0.10;99.90;;;;;;5055754;28;20572;-71
2023/05/01 00:44:00;;;;;;;0.70;0.70;;;-0.10;99.90;;;;;;5056129;28;20182;-72
2023/05/01 00:46:30;;;;;;;0.98;0.93;;;-0.10;99.90;;;;;;5053926;28;20201;-72
2023/05/01 00:48:57;;;;;;;0.90;0.90;;;-0.10;99.90;;;;;;5037621;28;20208;-72
2023/05/01 00:51:26;;;;;;;0.70;0.70;;;-0.10;99.90;;;;;;5055233;28;20202;-72
2023/05/01 00:53:52;;;;;;;0.77;0.77;;;-0.10;99.90;;;;;;5056032;28;20193;-73
2023/05/01 00:56:17;;;;;;;0.70;0.70;;;-0.10;99.90;;;;;;5057462;28;20540;-72
2023/05/01 00:58:48;;;;;;;0.70;0.70;;;0.00;99.90;;;;;;5075650;28;20185;-72
2023/05/01 01:01:15;;;;;;;0.90;0.90;;;0.00;99.90;;;;;;5075905;28;20616;-74
2023/05/01 01:06:11;;;;;;;0.85;0.85;;;0.10;99.90;;;;;;5034014;28;20237;-71
2023/05/01 01:08:39;;;;;;;0.65;0.65;;;0.20;99.90;;;;;;5017625;28;20277;-71
2023/05/01 01:11:14;;;;;;;0.73;0.73;;;0.20;99.90;;;;;;5035458;28;20209;-70
2023/05/01 01:13:59;;;;;;;0.80;0.80;;;0.30;99.90;;;;;;5035568;28;20696;-70
2023/05/01 01:16:53;;;;;;;0.70;0.70;;;0.40;99.90;;;;;;5035155;28;20221;-71
2023/05/01 01:19:19;;;;;;;0.63;0.63;;;0.40;99.90;;;;;;5035360;28;20664;-71
2023/05/01 01:21:48;;;;;;;0.80;0.80;;;0.50;99.90;;;;;;5035405;28;20289;-71
2023/05/01 01:24:27;;;;;;;1.17;1.08;;;0.50;99.90;;;;;;5042477;28;20281;-71
2023/05/01 01:27:35;;;;;;;0.90;0.90;;;0.60;99.90;;;;;;5037121;28;20216;-70
2023/05/01 01:30:25;;;;;;;0.70;0.70;;;0.70;99.90;;;;;;5054846;28;20193;-71
2023/05/01 01:33:33;;;;;;;0.70;0.70;;;0.70;99.90;;;;;;5054611;28;20216;-71
2023/05/01 01:36:06;;;;;;;0.68;0.68;;;0.70;99.90;;;;;;4944042;28;20283;-70
2023/05/01 01:39:06;;;;;;;0.70;0.70;;;0.70;99.90;;;;;;4954650;29;20213;-71
2023/05/01 01:41:34;;;;;;;0.68;0.68;;;0.70;99.90;;;;;;4954388;29;20213;-70
2023/05/01 01:44:05;;;;;;;0.70;0.70;;;0.70;99.90;;;;;;4954594;29;20300;-71
2023/05/01 01:46:38;;;;;;;0.80;0.80;;;0.70;99.90;;;;;;4954631;29;20747;-71
2023/05/01 01:49:12;;;;;;;1.20;1.10;;;0.80;99.90;;;;;;4954687;29;20669;-71
2023/05/01 01:51:40;;;;;;;0.68;0.68;;;0.80;99.90;;;;;;4954046;29;20225;-71
2023/05/01 01:54:08;;;;;;;0.70;0.70;;;0.80;99.90;;;;;;4938316;29;20217;-71
2023/05/01 01:56:36;;;;;;;0.80;0.80;;;0.90;99.90;;;;;;4954193;29;20237;-71
2023/05/01 01:59:03;;;;;;;0.60;0.60;;;1.00;99.90;;;;;;4954307;29;20196;-71
2023/05/01 02:01:29;;;;;;;0.73;0.73;;;1.00;99.90;;;;;;4953431;29;20243;-70
2023/05/01 02:03:57;;;;;;;0.68;0.68;;;1.10;99.90;;;;;;4954059;29;20727;-71
2023/05/01 02:06:24;;;;;;;1.27;1.17;;;1.10;99.90;;;;;;4953635;29;20208;-71
2023/05/01 02:08:51;;;;;;;1.27;1.02;;;1.10;99.90;;;;;;4960356;28;20208;-71
2023/05/01 02:11:19;;;;;;;0.80;0.80;;;1.10;99.90;;;;;;5014524;28;20203;-70
2023/05/01 02:13:46;;;;;;;0.70;0.70;;;1.10;99.90;;;;;;5014467;28;20191;-70
2023/05/01 02:16:13;;;;;;;0.80;0.80;;;1.10;99.90;;;;;;5014476;28;20218;-71
2023/05/01 02:18:40;;;;;;;0.90;0.90;;;1.10;99.90;;;;;;5014294;28;20274;-71
2023/05/01 02:21:06;;;;;;;0.80;0.80;;;1.10;99.90;;;;;;5014098;28;20203;-71
2023/05/01 02:23:32;;;;;;;0.80;0.80;;;1.10;99.90;;;;;;4996636;28;20217;-71
2023/05/01 02:26:01;;;;;;;0.80;0.80;;;1.20;99.90;;;;;;5014414;28;20198;-71
2023/05/01 02:28:29;;;;;;;0.80;0.80;;;1.20;99.90;;;;;;5013980;28;20217;-70
2023/05/01 02:30:56;;;;;;;0.70;0.70;;;1.20;99.90;;;;;;5014231;28;20258;-71
2023/05/01 02:33:22;;;;;;;0.80;0.80;;;1.20;99.90;;;;;;5013971;28;20199;-71
2023/05/01 02:35:48;;;;;;;0.70;0.70;;;1.30;99.90;;;;;;5002036;28;20301;-71
2023/05/01 02:38:15;;;;;;;0.60;0.60;;;1.40;99.90;;;;;;4994419;28;20191;-71
2023/05/01 02:40:45;;;;;;;0.80;0.80;;;1.40;99.90;;;;;;4976719;28;20294;-71
2023/05/01 02:43:15;;;;;;;0.70;0.70;;;1.40;99.90;;;;;;4994391;28;20790;-71
2023/05/01 02:45:42;;;;;;;0.80;0.80;;;1.30;99.90;;;;;;4993972;28;20195;-71
2023/05/01 02:48:12;;;;;;;0.70;0.70;;;1.40;99.90;;;;;;5004414;28;20195;-71
2023/05/01 02:50:41;;;;;;;0.90;0.90;;;1.40;99.90;;;;;;4995880;28;20225;-71
2023/05/01 02:53:08;;;;;;;0.63;0.63;;;1.40;99.90;;;;;;5013282;28;20666;-71
2023/05/01 02:55:34;;;;;;;0.60;0.60;;;1.40;99.90;;;;;;5013621;28;20593;-71
2023/05/01 02:58:01;;;;;;;0.63;0.63;;;1.40;99.90;;;;;;5013708;28;20191;-71
2023/05/01 03:00:27;;;;;;;1.13;1.02;;;1.40;99.90;;;;;;5013391;28;20596;-71
2023/05/01 03:02:53;;;;;;;0.80;0.80;;;1.40;99.90;;;;;;5012601;28;20195;-71
2023/05/01 03:05:19;;;;;;;0.50;0.50;;;1.40;99.90;;;;;;5015700;28;20227;-71
2023/05/01 03:07:46;;;;;;;0.70;0.70;;;1.40;99.90;;;;;;5013619;28;20199;-71
2023/05/01 03:10:12;;;;;;;0.88;0.88;;;1.50;99.90;;;;;;4996022;28;20205;-71
2023/05/01 03:12:38;;;;;;;0.75;0.75;;;1.50;99.90;;;;;;5013233;28;20211;-71
2023/05/01 03:15:04;;;;;;;0.80;0.80;;;1.60;99.90;;;;;;4996041;28;20265;-71
2023/05/01 03:17:30;;;;;;;0.70;0.70;;;1.60;99.90;;;;;;5009124;28;20308;-71
2023/05/01 03:19:56;;;;;;;0.73;0.73;;;1.60;99.90;;;;;;5033318;28;20724;-71
2023/05/01 03:22:22;;;;;;;0.80;0.80;;;1.60;99.90;;;;;;5015122;28;20226;-71
2023/05/01 03:24:48;;;;;;;0.80;0.80;;;1.60;99.90;;;;;;5015293;28;20683;-71
2023/05/01 03:27:14;;;;;;;0.60;0.60;;;1.60;99.90;;;;;;5032909;28;20198;-71
2023/05/01 03:29:40;;;;;;;0.70;0.70;;;1.60;99.90;;;;;;5032879;28;20198;-71
2023/05/01 03:32:06;;;;;;;0.73;0.73;;;1.60;99.90;;;;;;5032429;28;20564;-71
2023/05/01 03:34:31;;;;;;;0.88;0.88;;;1.60;99.90;;;;;;5031094;28;20205;-71
2023/05/01 03:36:57;;;;;;;0.60;0.60;;;1.70;99.90;;;;;;5013331;28;20191;-71
2023/05/01 03:39:23;;;;;;;2.38;1.67;;;1.70;99.90;;;;;;5013051;28;20225;-71
2023/05/01 03:41:48;;;;;;;0.80;0.80;;;1.70;99.90;;;;;;5013236;28;20195;-71
2023/05/01 03:44:14;;;;;;;0.70;0.70;;;1.70;99.90;;;;;;5013032;28;20226;-71
2023/05/01 03:46:40;;;;;;;0.80;0.80;;;1.70;99.90;;;;;;5013019;28;20278;-71
2023/05/01 03:49:06;;;;;;;0.80;0.80;;;1.80;99.90;;;;;;5013204;28;20191;-71
2023/05/01 03:51:32;;;;;;;0.70;0.70;;;1.80;99.90;;;;;;4995124;28;20660;-71
2023/05/01 03:53:58;;;;;;;0.70;0.70;;;1.80;99.90;;;;;;4995362;28;20190;-70
2023/05/01 03:56:26;;;;;;;0.65;0.65;;;1.90;99.90;;;;;;5012894;28;20195;-70
2023/05/01 03:58:52;;;;;;;0.70;0.70;;;1.90;99.90;;;;;;5015756;28;20191;-70
2023/05/01 04:01:18;;;;;;;0.70;0.70;;;2.00;99.90;;;;;;5011758;28;20199;-70
2023/05/01 04:03:45;;;;;;;0.70;0.70;;;2.10;99.90;;;;;;4995887;28;20211;-70
2023/05/01 04:06:11;;;;;;;0.70;0.70;;;2.20;99.90;;;;;;5015021;28;20570;-70
2023/05/01 04:08:37;;;;;;;0.70;0.70;;;2.20;99.90;;;;;;5016307;28;20199;-71
2023/05/01 04:11:03;;;;;;;0.70;0.70;;;2.20;99.90;;;;;;5016243;28;20202;-71
2023/05/01 04:13:31;;;;;;;0.70;0.70;;;2.20;99.90;;;;;;5038956;28;20273;-71
2023/05/01 04:15:58;;;;;;;0.80;0.80;;;2.30;99.90;;;;;;5056178;28;20189;-70
2023/05/01 04:18:24;;;;;;;0.88;0.88;;;2.30;99.90;;;;;;5056296;28;20655;-70
2023/05/01 04:20:50;;;;;;;0.80;0.80;;;2.30;99.90;;;;;;5056424;28;20648;-71
2023/05/01 04:23:16;;;;;;;0.70;0.70;;;2.40;99.90;;;;;;5056338;28;20198;-70
2023/05/01 04:25:42;;;;;;;0.70;0.70;;;2.40;99.90;;;;;;5056177;28;20283;-69
2023/05/01 04:28:11;;;;;;;0.70;0.70;;;2.40;99.90;;;;;;5038398;28;20279;-69
2023/05/01 04:30:37;;;;;;;0.70;0.70;;;2.40;99.90;;;;;;5038163;28;20664;-69
2023/05/01 04:33:10;;;;;;;0.70;0.70;;;2.50;99.90;;;;;;5037056;28;20194;-69
2023/05/01 04:35:37;;;;;;;0.70;0.70;;;2.60;99.90;;;;;;5034191;28;20206;-70
2023/05/01 04:38:04;;;;;;;0.70;0.70;;;2.60;99.90;;;;;;5035121;28;20216;-70
2023/05/01 04:40:30;;;;;;;2.25;1.30;;;2.70;99.90;;;;;;5034369;28;20555;-71
2023/05/01 04:42:56;;;;;;;0.70;0.70;;;2.70;99.90;;;;;;5036200;28;20657;-71
2023/05/01 04:45:22;;;;;;;0.73;0.73;;;2.70;99.90;;;;;;5035825;28;20225;-69
2023/05/01 04:47:48;;;;;;;0.70;0.70;;;2.80;99.90;;;;;;5036005;28;20236;-69
2023/05/01 04:50:13;;;;;;;0.80;0.80;;;2.90;99.90;;;;;;5035555;28;20201;-69
2023/05/01 04:52:39;;;;;;;0.80;0.80;;;2.90;99.90;;;;;;5035029;28;20284;-69
2023/05/01 04:55:06;;;;;;;11.10;3.30;;;2.90;99.90;;;;;;5035912;28;20773;-69
2023/05/01 04:57:31;;;;;;;0.70;0.70;;;2.90;99.90;;;;;;5035516;28;20191;-69
2023/05/01 04:59:57;;;;;;;0.70;0.70;;;3.00;99.90;;;;;;5018144;28;20202;-69
2023/05/01 05:02:23;;;;;;;0.73;0.73;;;3.00;99.90;;;;;;5035180;28;20236;-68
2023/05/01 05:04:49;;;;;;;0.70;0.70;;;3.00;99.90;;;;;;5035781;28;20230;-69
2023/05/01 05:07:15;;;;;;;0.60;0.60;;;2.90;99.90;;;;;;5017993;28;20198;-68
2023/05/01 05:09:41;;;;;;;0.60;0.60;;;2.90;99.90;;;;;;5045318;28;20205;-69
2023/05/01 05:12:07;;;;;;;0.80;0.80;;;3.00;99.90;;;;;;5053848;28;20284;-69
2023/05/01 05:14:32;;;;;;;0.70;0.70;;;3.00;99.90;;;;;;5017630;28;20198;-69
2023/05/01 05:16:58;;;;;;;0.80;0.80;;;3.00;99.90;;;;;;5035727;28;20202;-69
2023/05/01 05:19:24;;;;;;;10.57;1.88;;;3.10;99.90;;;;;;5035359;28;20601;-68
2023/05/01 05:21:49;;;;;;;0.70;0.70;;;3.20;99.90;;;;;;5035542;28;20669;-69
2023/05/01 05:24:15;;;;;;;0.70;0.70;;;3.20;99.90;;;;;;5035588;28;20200;-69
2023/05/01 05:26:41;;;;;;;0.70;0.70;;;3.30;99.90;;;;;;5017304;28;20279;-69
2023/05/01 05:29:07;;;;;;;0.80;0.80;;;3.30;99.90;;;;;;5035173;28;20194;-69
2023/05/01 05:31:33;;;;;;;0.80;0.80;;;3.40;99.90;;;;;;5016836;28;20677;-69
2023/05/01 05:33:58;;;;;;;0.70;0.70;;;3.40;99.90;;;;;;5035427;28;20194;-69
2023/05/01 05:36:26;;;;;;;0.68;0.68;;;3.40;99.90;;;;;;5034527;28;20201;-69
2023/05/01 05:38:52;;;;;;;0.70;0.70;;;3.40;99.90;;;;;;5035130;28;20236;-69
2023/05/01 05:41:18;;;;;;;0.70;0.70;;;3.40;99.90;;;;;;5034845;28;20652;-69
2023/05/01 05:43:43;;;;;;;0.80;0.80;;;3.40;99.90;;;;;;5035587;28;20191;-69
2023/05/01 05:46:09;;;;;;;0.80;0.80;;;3.40;99.90;;;;;;5035173;28;20194;-69
2023/05/01 05:48:35;;;;;;;0.80;0.80;;;3.40;99.90;;;;;;5034687;28;20198;-69
2023/05/01 05:51:00;;;;;;;0.70;0.70;;;3.30;99.90;;;;;;5034875;28;20206;-69
2023/05/01 05:53:26;;;;;;;0.80;0.80;;;3.30;99.90;;;;;;5034133;28;20200;-69
2023/05/01 05:55:52;;;;;;;0.70;0.70;;;3.20;99.90;;;;;;5034623;28;20265;-69
2023/05/01 05:58:21;;;;;;;4.60;1.75;;;3.20;99.90;;;;;;5034420;28;20206;-69
2023/05/01 06:00:47;;;;;;;0.70;0.70;;;3.20;99.90;;;;;;5032875;28;20208;-70
2023/05/01 06:03:14;;;;;;;0.70;0.70;;;3.20;99.90;;;;;;5034367;28;20201;-69
2023/05/01 06:05:41;;;;;;;0.80;0.80;;;3.10;99.90;;;;;;5042580;28;20237;-69
2023/05/01 06:08:09;;;;;;;0.70;0.70;;;3.20;99.90;;;;;;5054322;28;20209;-69
2023/05/01 06:10:36;;;;;;;0.70;0.70;;;3.30;99.90;;;;;;5053364;28;20192;-69
2023/05/01 06:13:02;;;;;;;0.70;0.70;;;3.30;99.90;;;;;;5045162;28;20201;-69
2023/05/01 06:15:28;;;;;;;0.70;0.70;;;3.30;99.90;;;;;;5034143;28;20221;-69
2023/05/01 06:17:54;;;;;;;0.60;0.60;;;3.40;99.90;;;;;;5034216;28;20282;-70
2023/05/01 06:20:19;;;;;;;0.70;0.70;;;3.50;99.90;;;;;;5033865;28;20270;-69
2023/05/01 06:22:45;;;;;;;0.80;0.80;;;3.40;99.90;;;;;;5034038;28;20198;-70
2023/05/01 06:25:11;;;;;;;0.80;0.80;;;3.40;99.90;;;;;;5034058;28;20198;-69
2023/05/01 06:27:37;;;;;;;0.63;0.63;;;3.30;99.90;;;;;;5016454;28;20237;-70
2023/05/01 06:30:04;;;;;;;0.70;0.70;;;3.30;99.90;;;;;;5034227;28;20228;-70
2023/05/01 06:32:29;;;;;;;0.70;0.70;;;3.40;99.90;;;;;;5033497;28;20194;-70
2023/05/01 06:34:55;;;;;;;0.80;0.80;;;3.50;99.90;;;;;;5033688;28;20565;-70
2023/05/01 06:37:21;;;;;;;0.70;0.70;;;3.50;99.90;;;;;;5033757;28;20268;-70
2023/05/01 06:39:47;;;;;;;0.70;0.70;;;3.40;99.90;;;;;;5032537;28;20702;-69
2023/05/01 06:42:15;;;;;;;0.75;0.75;;;3.50;99.90;;;;;;5033832;28;20264;-71
2023/05/01 06:44:41;;;;;;;0.70;0.70;;;3.60;99.90;;;;;;5032269;28;20210;-70
2023/05/01 06:47:07;;;;;;;0.80;0.80;;;3.70;99.90;;;;;;5033081;28;20247;-70
2023/05/01 06:49:33;;;;;;;0.70;0.70;;;3.80;99.90;;;;;;5032400;28;20206;-70
2023/05/01 06:51:59;;;;;;;0.70;0.70;;;3.80;99.90;;;;;;5033825;28;20260;-70
2023/05/01 06:54:27;;;;;;;0.80;0.80;;;3.90;99.90;;;;;;5033221;28;20665;-71
2023/05/01 06:56:53;;;;;;;1.20;1.15;;;4.10;99.90;;;;;;5032253;28;20618;-70
2023/05/01 06:59:19;;;;;;;0.80;0.80;;;4.10;99.90;;;;;;5015387;28;20222;-71
2023/05/01 07:01:45;;;;;;;0.70;0.70;;;4.10;99.90;;;;;;5022772;28;20193;-70
2023/05/01 07:04:11;;;;;;;0.68;0.68;;;4.20;99.90;;;;;;5035399;28;20209;-70
2023/05/01 07:06:37;;;;;;;0.65;0.65;;;4.20;99.90;;;;;;5052863;28;20229;-70
2023/05/01 07:09:04;;;;;;;0.80;0.80;;;4.20;99.90;;;;;;5035474;28;20618;-69
2023/05/01 07:11:30;;;;;;;3.10;1.88;;;4.20;99.90;;;;;;5052685;28;20206;-70
2023/05/01 07:13:56;;;;;;;0.80;0.80;;;4.20;99.90;;;;;;5036714;28;20316;-70
2023/05/01 07:16:22;;;;;;;0.77;0.77;;;4.20;99.90;;;;;;5033004;28;20273;-70
2023/05/01 07:18:48;;;;;;;0.82;0.82;;;4.10;99.90;;;;;;5033224;28;20187;-70
2023/05/01 07:21:14;;;;;;;0.70;0.70;;;4.20;99.90;;;;;;5031789;28;20570;-70
2023/05/01 07:23:40;;;;;;;0.70;0.70;;;4.30;99.90;;;;;;5033017;28;20190;-71
2023/05/01 07:26:05;;;;;;;0.80;0.80;;;4.10;99.90;;;;;;5032216;28;20714;-70
2023/05/01 07:28:31;;;;;;;0.80;0.80;;;4.10;99.90;;;;;;5030486;28;20202;-70
2023/05/01 07:30:57;;;;;;;0.70;0.70;;;4.10;99.90;;;;;;5033026;28;20697;-71
2023/05/01 07:33:26;;;;;;;0.80;0.80;;;4.20;99.90;;;;;;5032160;28;20264;-71
2023/05/01 07:35:51;;;;;;;0.80;0.80;;;4.00;99.90;;;;;;5020274;28;20577;-71
2023/05/01 07:38:17;;;;;;;0.65;0.65;;;3.90;99.90;;;;;;4995566;28;20206;-71
2023/05/01 07:40:43;;;;;;;0.75;0.75;;;3.90;99.90;;;;;;5012952;28;20570;-70
2023/05/01 07:43:11;;;;;;;0.80;0.80;;;3.90;99.90;;;;;;4995389;28;20194;-70
2023/05/01 07:45:41;;;;;;;0.50;0.50;;;4.00;99.90;;;;;;4994890;28;20203;-71
2023/05/01 07:48:07;;;;;;;0.63;0.63;;;4.10;99.90;;;;;;5015020;28;20198;-71
2023/05/01 07:50:33;;;;;;;0.70;0.70;;;4.10;99.90;;;;;;5032700;28;20273;-72
2023/05/01 07:52:58;;;;;;;0.60;0.60;;;4.20;99.90;;;;;;5032624;28;20256;-70
2023/05/01 07:55:24;;;;;;;0.90;0.90;;;4.20;99.90;;;;;;5032536;28;20206;-71
2023/05/01 07:57:50;;;;;;;0.60;0.60;;;4.30;99.90;;;;;;5038768;28;20261;-71
2023/05/01 08:00:17;;;;;;;0.80;0.80;;;4.30;99.90;;;;;;5052563;28;20217;-72
2023/05/01 08:02:42;;;;;;;0.70;0.70;;;4.00;99.90;;;;;;5034489;28;20201;-72
2023/05/01 08:05:08;;;;;;;0.80;0.80;;;4.00;99.90;;;;;;5034291;28;20332;-71
2023/05/01 08:07:34;;;;;;;0.80;0.80;;;4.20;99.90;;;;;;5052073;28;20209;-72
2023/05/01 08:10:00;;;;;;;0.77;0.77;;;4.30;99.90;;;;;;5019699;28;20198;-72
2023/05/01 08:12:27;;;;;;;0.70;0.70;;;4.30;99.90;;;;;;5014822;28;20225;-72
2023/05/01 08:14:53;;;;;;;0.80;0.80;;;4.40;99.90;;;;;;5032790;28;20209;-72
2023/05/01 08:17:19;;;;;;;0.75;0.75;;;4.50;99.90;;;;;;5014660;28;20190;-72
2023/05/01 08:19:45;;;;;;;0.70;0.70;;;4.20;99.90;;;;;;5014763;28;20190;-71
2023/05/01 08:22:11;;;;;;;0.70;0.70;;;4.20;99.90;;;;;;5032659;28;20194;-71
2023/05/01 08:24:38;;;;;;;0.70;0.70;;;4.20;99.90;;;;;;5032139;28;20190;-71
2023/05/01 08:27:04;;;;;;;0.60;0.60;;;4.10;99.90;;;;;;5014677;28;20564;-71
2023/05/01 08:29:30;;;;;;;0.70;0.70;;;4.20;99.90;;;;;;5032181;28;20199;-71
2023/05/01 08:31:57;;;;;;;0.60;0.60;;;4.20;99.90;;;;;;5032579;28;20212;-71
2023/05/01 08:34:23;;;;;;;0.70;0.70;;;4.20;99.90;;;;;;5031968;28;20198;-72
2023/05/01 08:36:49;;;;;;;0.80;0.80;;;4.30;99.90;;;;;;5014922;28;20260;-72
2023/05/01 08:39:15;;;;;;;1.27;1.17;;;4.30;99.90;;;;;;5014253;28;20224;-71
2023/05/01 08:41:45;;;;;;;0.60;0.60;;;4.20;99.90;;;;;;5032320;28;20269;-71
2023/05/01 08:44:13;;;;;;;0.60;0.60;;;4.20;99.90;;;;;;5033711;28;20210;-71
2023/05/01 08:47:16;;;;;;;0.70;0.70;;;4.20;99.90;;;;;;5017346;28;20556;-72
2023/05/01 08:49:42;;;;;;;0.70;0.70;;;4.10;99.90;;;;;;5017994;28;20204;-71
2023/05/01 08:52:11;;;;;;;0.80;0.80;;;4.20;99.90;;;;;;5035700;28;20206;-71
2023/05/01 08:54:40;;;;;;;0.65;0.65;;;4.20;99.90;;;;;;5045872;28;20198;-72
2023/05/01 08:57:08;;;;;;;0.73;0.73;;;4.40;99.90;;;;;;5055332;28;20716;-71
2023/05/01 08:59:35;;;;;;;0.60;0.60;;;4.30;99.90;;;;;;5037050;28;20198;-71
2023/05/01 09:02:03;;;;;;;0.70;0.70;;;4.30;99.90;;;;;;5055399;28;20197;-71
2023/05/01 09:04:40;;;;;;;0.70;0.70;;;4.40;99.90;;;;;;5036693;28;20209;-72
2023/05/01 09:07:06;;;;;;;0.70;0.70;;;4.20;99.90;;;;;;5035520;28;20287;-72
2023/05/01 09:09:33;;;;;;;0.80;0.80;;;4.30;99.90;;;;;;5035499;28;20198;-71
2023/05/01 09:12:07;;;;;;;0.70;0.70;;;4.40;99.90;;;;;;5035441;28;20554;-71
2023/05/01 09:14:33;;;;;;;0.60;0.60;;;4.30;99.90;;;;;;5017290;28;20225;-71
2023/05/01 09:16:59;;;;;;;0.80;0.80;;;4.00;99.90;;;;;;5035016;28;20720;-70
2023/05/01 09:19:25;;;;;;;0.77;0.77;;;3.90;99.90;;;;;;5034573;28;20273;-71
2023/05/01 09:21:54;;;;;;;0.90;0.90;;;3.80;99.90;;;;;;5017177;28;20294;-71
2023/05/01 09:24:23;;;;;;;0.80;0.80;;;3.80;99.90;;;;;;5017163;28;20312;-72
2023/05/01 09:26:49;;;;;;;0.77;0.77;;;3.80;99.90;;;;;;5016725;28;20258;-71
2023/05/01 09:29:37;;;;;;;0.60;0.60;;;3.80;99.90;;;;;;5030525;28;21002;-72
2023/05/01 09:32:23;;;;;;;0.77;0.77;;;3.90;99.90;;;;;;5032898;28;20210;-71
2023/05/01 09:34:50;;;;;;;0.70;0.70;;;4.00;99.90;;;;;;5034507;28;20194;-71
2023/05/01 09:37:30;;;;;;;0.75;0.75;;;3.90;99.90;;;;;;5034395;28;20225;-71
2023/05/01 09:40:01;;;;;;;0.70;0.70;;;3.70;99.90;;;;;;5034389;28;20190;-71
2023/05/01 09:42:27;;;;;;;0.80;0.80;;;3.80;99.90;;;;;;5034340;28;20194;-72
2023/05/01 09:44:53;;;;;;;0.80;0.80;;;3.90;99.90;;;;;;5034366;28;20213;-72
2023/05/01 09:47:22;;;;;;;0.70;0.70;;;3.80;99.90;;;;;;5034142;28;20281;-71
2023/05/01 09:49:48;;;;;;;0.70;0.70;;;3.80;99.90;;;;;;5016709;28;20198;-71
2023/05/01 09:52:14;;;;;;;0.70;0.70;;;3.80;99.90;;;;;;5016915;28;20210;-72
2023/05/01 09:54:41;;;;;;;0.80;0.80;;;3.70;99.90;;;;;;5034247;28;20201;-71
2023/05/01 09:57:07;;;;;;;0.60;0.60;;;3.70;99.90;;;;;;5033753;28;20240;-70
2023/05/01 09:59:33;;;;;;;0.70;0.70;;;3.70;99.90;;;;;;5033908;28;20645;-70
2023/05/01 10:02:00;;;;;;;0.80;0.80;;;3.70;99.90;;;;;;5016125;28;20550;-71
2023/05/01 10:04:33;;;;;;;0.70;0.70;;;3.90;99.90;;;;;;5033446;28;20260;-71
2023/05/01 10:07:12;;;;;;;0.65;0.65;;;4.00;99.90;;;;;;5034104;28;20740;-70
2023/05/01 10:09:38;;;;;;;0.90;0.90;;;4.00;99.90;;;;;;5033711;28;20577;-71
2023/05/01 10:12:04;;;;;;;0.75;0.75;;;4.00;99.90;;;;;;5034239;28;20217;-71
2023/05/01 10:14:32;;;;;;;0.70;0.70;;;4.10;99.90;;;;;;5033683;28;20554;-71
2023/05/01 10:16:58;;;;;;;0.80;0.80;;;3.80;99.90;;;;;;5034001;28;20210;-70
2023/05/01 10:19:24;;;;;;;0.60;0.60;;;3.90;99.90;;;;;;5016115;28;20252;-71
2023/05/01 10:21:50;;;;;;;0.70;0.70;;;4.00;99.90;;;;;;5016100;28;20301;-70
2023/05/01 10:24:17;;;;;;;0.70;0.70;;;4.10;99.90;;;;;;5015941;28;20237;-71
2023/05/01 10:26:43;;;;;;;0.60;0.60;;;4.10;99.90;;;;;;5015604;28;20202;-71
2023/05/01 10:29:11;;;;;;;0.75;0.75;;;3.80;99.90;;;;;;5033714;28;20187;-70
2023/05/01 10:31:36;;;;;;;0.80;0.80;;;3.80;99.90;;;;;;5015434;28;20218;-71
2023/05/01 10:34:03;;;;;;;0.70;0.70;;;3.80;99.90;;;;;;5033687;28;20558;-70
2023/05/01 10:36:36;;;;;;;0.70;0.70;;;3.80;99.90;;;;;;5015475;28;20277;-70
2023/05/01 10:39:02;;;;;;;0.70;0.70;;;3.70;99.90;;;;;;5024059;28;20237;-70
2023/05/01 10:42:00;;;;;;;0.80;0.80;;;3.80;99.90;;;;;;5031777;28;20209;-71
2023/05/01 10:44:26;;;;;;;0.70;0.70;;;4.00;99.90;;;;;;5033110;28;20240;-71
2023/05/01 10:46:53;;;;;;;0.60;0.60;;;4.10;99.90;;;;;;5033305;28;20557;-70
2023/05/01 10:49:18;;;;;;;0.60;0.60;;;4.10;99.90;;;;;;5033261;28;20202;-70
2023/05/01 10:52:12;;;;;;;0.70;0.70;;;4.00;99.90;;;;;;5033225;28;20213;-70
2023/05/01 10:54:37;;;;;;;0.70;0.70;;;4.00;99.90;;;;;;5014473;28;20210;-70
2023/05/01 10:57:05;;;;;;;0.80;0.80;;;4.10;99.90;;;;;;5033169;28;20260;-71
2023/05/01 11:00:06;;;;;;;0.80;0.80;;;4.20;99.90;;;;;;5032765;28;20189;-69
2023/05/01 11:02:31;;;;;;;0.70;0.70;;;4.30;99.90;;;;;;4990956;28;20687;-70
2023/05/01 11:04:57;;;;;;;0.80;0.80;;;4.30;99.90;;;;;;4991162;28;20277;-70
2023/05/01 11:07:24;;;;;;;0.80;0.80;;;4.40;99.90;;;;;;4990372;28;20204;-70
2023/05/01 11:09:56;;;;;;;0.70;0.70;;;4.50;99.90;;;;;;4991454;28;20219;-69
2023/05/01 11:12:46;;;;;;;0.80;0.80;;;4.50;99.90;;;;;;4991151;28;20246;-71
2023/05/01 11:15:27;;;;;;;0.70;0.70;;;4.50;99.90;;;;;;4991902;28;20195;-71
2023/05/01 11:17:55;;;;;;;0.93;0.93;;;4.40;99.90;;;;;;4991911;28;20263;-70
2023/05/01 11:20:23;;;;;;;0.70;0.70;;;4.20;99.90;;;;;;4991550;28;20283;-70
2023/05/01 11:22:54;;;;;;;0.60;0.60;;;4.20;99.90;;;;;;4991642;28;20211;-71
2023/05/01 11:25:22;;;;;;;0.60;0.60;;;4.10;99.90;;;;;;4991093;28;20206;-71
2023/05/01 11:27:52;;;;;;;0.70;0.70;;;4.10;99.90;;;;;;4974970;28;20260;-71
2023/05/01 11:30:18;;;;;;;2.67;1.73;;;4.20;99.90;;;;;;4974899;28;20204;-71
2023/05/01 11:32:46;;;;;;;0.70;0.70;;;4.20;99.90;;;;;;4974958;28;20218;-70
2023/05/01 11:35:31;;;;;;;0.70;0.70;;;4.20;99.90;;;;;;4990753;28;20716;-69
2023/05/01 11:37:57;;;;;;;0.80;0.80;;;4.20;99.90;;;;;;5023950;28;20195;-69
2023/05/01 11:40:28;;;;;;;0.80;0.80;;;4.20;99.90;;;;;;5011712;28;20678;-71
2023/05/01 11:43:05;;;;;;;0.70;0.70;;;4.30;99.90;;;;;;5013017;28;20205;-69
2023/05/01 11:45:32;;;;;;;0.70;0.70;;;4.30;99.90;;;;;;5013196;28;20194;-71
2023/05/01 11:47:58;;;;;;;0.73;0.73;;;4.30;99.90;;;;;;5012962;28;20302;-69
2023/05/01 11:50:36;;;;;;;0.70;0.70;;;4.20;99.90;;;;;;5012599;28;20234;-70
2023/05/01 11:53:10;;;;;;;0.70;0.70;;;4.30;99.90;;;;;;5012710;28;20682;-69
2023/05/01 11:55:37;;;;;;;0.80;0.80;;;4.20;99.90;;;;;;4994911;28;20195;-70
2023/05/01 11:58:03;;;;;;;0.80;0.80;;;4.10;99.90;;;;;;5013138;28;20242;-69
2023/05/01 12:00:38;;;;;;;0.60;0.60;;;4.10;99.90;;;;;;5012498;28;20193;-69
2023/05/01 12:03:11;;;;;;;0.80;0.80;;;4.10;99.90;;;;;;5012586;28;20194;-68
2023/05/01 12:05:41;;;;;;;0.70;0.70;;;4.20;99.90;;;;;;5012261;28;20317;-68
2023/05/01 12:08:19;;;;;;;1.00;1.00;;;4.20;99.90;;;;;;5011347;28;20229;-69
2023/05/01 12:10:56;;;;;;;0.70;0.70;;;4.30;99.90;;;;;;5012361;28;20203;-69
2023/05/01 12:13:22;;;;;;;0.70;0.70;;;4.30;99.90;;;;;;5011196;28;20253;-69
2023/05/01 12:15:52;;;;;;;0.70;0.70;;;4.40;99.90;;;;;;5012899;28;20538;-69
2023/05/01 12:18:20;;;;;;;0.70;0.70;;;4.40;99.90;;;;;;5012902;28;20241;-70
2023/05/01 12:20:49;;;;;;;0.70;0.70;;;4.40;99.90;;;;;;5016343;28;20197;-70
2023/05/01 12:23:15;;;;;;;0.70;0.70;;;4.40;99.90;;;;;;5024649;28;20543;-69
2023/05/01 12:25:42;;;;;;;0.70;0.70;;;4.40;99.90;;;;;;5036433;28;20772;-70
2023/05/01 12:28:17;;;;;;;0.70;0.70;;;4.50;99.90;;;;;;5036468;28;20189;-69
2023/05/01 12:30:45;;;;;;;0.70;0.70;;;4.50;99.90;;;;;;5035619;28;20210;-69
2023/05/01 12:33:19;;;;;;;0.70;0.70;;;4.50;99.90;;;;;;5018383;28;20225;-70
2023/05/01 12:35:47;;;;;;;0.60;0.60;;;4.60;99.90;;;;;;5035756;28;20194;-70
2023/05/01 12:38:18;;;;;;;0.70;0.70;;;4.60;99.90;;;;;;5017699;28;20203;-70
2023/05/01 12:40:55;;;;;;;0.70;0.70;;;4.60;99.90;;;;;;5035731;28;20190;-70
2023/05/01 12:43:35;;;;;;;0.68;0.68;;;4.60;99.90;;;;;;5035930;28;20272;-70
2023/05/01 12:46:02;;;;;;;0.70;0.70;;;4.70;99.90;;;;;;5036047;28;20190;-69
2023/05/01 12:48:30;;;;;;;0.70;0.70;;;4.80;99.90;;;;;;5017467;28;20198;-67
2023/05/01 12:50:56;;;;;;;0.80;0.80;;;4.80;99.90;;;;;;5035369;28;20688;-69
2023/05/01 12:53:26;;;;;;;0.70;0.70;;;4.80;99.90;;;;;;5035493;28;20588;-69
2023/05/01 12:55:54;;;;;;;0.73;0.73;;;4.80;99.90;;;;;;5034265;28;20324;-69
2023/05/01 12:58:20;;;;;;;0.75;0.75;;;4.80;99.90;;;;;;5035138;28;20236;-70
2023/05/01 13:00:48;;;;;;;0.70;0.70;;;4.80;99.90;;;;;;5035585;28;20197;-69
2023/05/01 13:03:16;;;;;;;0.70;0.70;;;4.80;99.90;;;;;;5035532;28;20674;-70